Terminal Aerodrome Forecast
Issued by NWS Austin/San Antonio, TX

Home | Current Version | Previous Version | Text Only | Print | Product List | Glossary On
Versions: 1 2 3 4 5 6 7 8 9 10 11 12
122
FTUS44 KEWX 061729
TAFAUS
TAF
KAUS 061729Z 0618/0724 34016G26KT P6SM SKC
     FM070000 36010KT P6SM SKC
     FM070700 VRB03KT P6SM FEW250
     FM071600 18008KT P6SM FEW250=

USA.gov is the U.S. government's official web portal to all federal, state and local government web resources and services.